Time;durP1;ratioP1;P1;durP2;ratioP2;P2;SDS_P1;SDS_P2;PMS_P1;PMS_P2;Temp;Humidity;BMP_temperature;BMP_pressure;BME280_temperature;BME280_humidity;BME280_pressure;Samples;Min_cycle;Max_cycle;Signal;HPM_P1;HPM_P2
2022/07/09 00:01:23;;;;;;;3.40;1.20;;;;;;;18.23;69.35;101852.88;5063582;28;20116;-71
2022/07/09 00:03:51;;;;;;;3.40;1.13;;;;;;;18.23;68.62;101852.88;5057266;28;20028;-72
2022/07/09 00:06:16;;;;;;;3.10;1.30;;;;;;;18.21;69.40;101861.59;5075702;28;20024;-72
2022/07/09 00:08:42;;;;;;;3.63;1.23;;;;;;;18.18;69.22;101856.59;5044402;28;20036;-72
2022/07/09 00:11:07;;;;;;;1.50;1.30;;;;;;;18.19;70.68;101858.28;5043604;28;20393;-71
2022/07/09 00:13:33;;;;;;;2.83;1.45;;;;;;;18.13;69.46;101859.53;5060882;28;20370;-71
2022/07/09 00:15:58;;;;;;;2.67;1.10;;;;;;;18.09;69.71;101856.50;5060092;28;20032;-72
2022/07/09 00:18:24;;;;;;;2.60;1.15;;;;;;;18.08;69.19;101845.59;5075978;28;20116;-72
2022/07/09 00:20:49;;;;;;;1.95;1.55;;;;;;;18.00;70.33;101849.97;5043819;28;20025;-72
2022/07/09 00:23:15;;;;;;;2.50;1.10;;;;;;;17.99;70.07;101847.44;5059759;28;20024;-72
2022/07/09 00:25:40;;;;;;;1.85;1.30;;;;;;;17.99;70.07;101842.66;5078440;28;20028;-71
2022/07/09 00:28:06;;;;;;;2.85;1.33;;;;;;;17.98;70.36;101835.38;5077121;28;20028;-72
2022/07/09 00:30:31;;;;;;;2.47;1.50;;;;;;;17.90;71.96;101838.09;5057300;28;20036;-72
2022/07/09 00:32:57;;;;;;;4.07;1.50;;;;;;;17.86;71.42;101840.69;5076806;28;20105;-71
2022/07/09 00:35:22;;;;;;;4.40;1.60;;;;;;;17.78;72.59;101841.38;5059871;28;20031;-72
2022/07/09 00:37:48;;;;;;;3.30;1.65;;;;;;;17.74;72.46;101840.31;5040121;28;20040;-72
2022/07/09 00:40:13;;;;;;;4.43;1.63;;;;;;;17.73;71.60;101838.66;5058266;28;20025;-72
2022/07/09 00:42:39;;;;;;;3.15;1.65;;;;;;;17.67;71.92;101828.69;5059882;28;20028;-72
2022/07/09 00:45:05;;;;;;;5.70;1.48;;;;;;;17.67;71.65;101831.47;5043605;28;20044;-72
2022/07/09 00:47:30;;;;;;;2.25;1.50;;;;;;;17.63;71.59;101834.91;5043327;28;20484;-72
2022/07/09 00:49:56;;;;;;;5.05;1.75;;;;;;;17.62;72.03;101833.22;5059709;28;20083;-71
2022/07/09 00:52:21;;;;;;;3.55;1.55;;;;;;;17.51;73.99;101831.75;5036318;28;20487;-72
2022/07/09 00:54:47;;;;;;;3.55;1.85;;;;;;;17.43;74.95;101829.66;5023591;28;20049;-72
2022/07/09 00:57:12;;;;;;;4.22;2.00;;;;;;;17.36;75.20;101823.63;5091618;28;20031;-72
2022/07/09 00:59:38;;;;;;;3.25;1.83;;;;;;;17.37;74.76;101820.50;5042976;28;20071;-72
2022/07/09 01:02:03;;;;;;;5.32;1.70;;;;;;;17.34;74.11;101825.91;5056438;28;20123;-72
2022/07/09 01:04:29;;;;;;;4.72;1.88;;;;;;;17.28;75.00;101816.72;5059994;28;20056;-72
2022/07/09 01:06:55;;;;;;;3.05;1.65;;;;;;;17.27;74.71;101814.22;5077166;28;20086;-72
2022/07/09 01:09:21;;;;;;;2.92;1.80;;;;;;;17.24;74.92;101821.28;5077388;28;20039;-72
2022/07/09 01:11:47;;;;;;;2.58;1.70;;;;;;;17.23;74.53;101818.78;5077470;28;20024;-72
2022/07/09 01:14:12;;;;;;;3.88;1.67;;;;;;;17.19;74.25;101808.19;5058402;28;20026;-72
2022/07/09 01:16:38;;;;;;;2.67;1.67;;;;;;;17.15;74.78;101809.94;5075791;28;20422;-72
2022/07/09 01:19:04;;;;;;;3.97;2.20;;;;;;;17.10;76.20;101810.00;5042873;28;20029;-72
2022/07/09 01:21:29;;;;;;;4.78;1.80;;;;;;;17.12;74.85;101809.72;5072355;28;20029;-72
2022/07/09 01:23:56;;;;;;;4.25;2.00;;;;;;;17.08;74.97;101809.50;5059380;28;20059;-72
2022/07/09 01:26:22;;;;;;;2.90;1.70;;;;;;;17.04;74.42;101819.66;5075939;28;20036;-72
2022/07/09 01:28:48;;;;;;;4.15;1.98;;;;;;;17.08;73.91;101814.28;5026152;28;20477;-71
2022/07/09 01:31:13;;;;;;;2.92;1.95;;;;;;;17.05;73.75;101807.31;5059020;28;20016;-71
2022/07/09 01:33:39;;;;;;;3.80;1.90;;;;;;;17.03;73.69;101815.19;5059113;28;20111;-71
2022/07/09 01:36:06;;;;;;;3.90;2.50;;;;;;;16.97;77.18;101805.19;5059107;28;20086;-71
2022/07/09 01:38:31;;;;;;;2.55;1.90;;;;;;;16.97;74.59;101811.63;5042053;28;20405;-71
2022/07/09 01:40:57;;;;;;;4.63;2.67;;;;;;;16.91;75.69;101809.22;5075909;28;20102;-71
2022/07/09 01:43:22;;;;;;;6.97;3.30;;;;;;;16.73;77.96;101811.69;5075491;28;20035;-71
2022/07/09 01:45:48;;;;;;;9.90;2.70;;;;;;;16.77;76.64;101811.97;5059169;28;20029;-71
2022/07/09 01:48:13;;;;;;;5.82;2.50;;;;;;;16.74;76.59;101804.97;5058500;28;20032;-72
2022/07/09 01:50:39;;;;;;;5.40;2.88;;;;;;;16.73;76.12;101805.25;5053956;28;20427;-72
2022/07/09 01:53:04;;;;;;;7.55;3.22;;;;;;;16.72;76.73;101804.44;5058028;28;20510;-72
2022/07/09 01:55:30;;;;;;;5.18;2.75;;;;;;;16.74;76.34;101812.53;5058434;28;20044;-72
2022/07/09 01:57:55;;;;;;;4.57;2.33;;;;;;;16.72;75.49;101810.03;5058722;28;20150;-72
2022/07/09 02:00:21;;;;;;;4.20;1.98;;;;;;;16.72;75.33;101804.44;5074446;28;20641;-72
2022/07/09 02:02:47;;;;;;;4.63;2.40;;;;;;;16.70;75.11;101803.91;5018214;28;20032;-72
2022/07/09 02:05:12;;;;;;;5.43;2.65;;;;;;;16.69;75.19;101807.03;5038631;28;20024;-71
2022/07/09 02:07:38;;;;;;;4.25;2.50;;;;;;;16.69;75.00;101813.47;5069984;28;20047;-72
2022/07/09 02:10:04;;;;;;;6.72;3.20;;;;;;;16.67;75.36;101807.31;5042248;28;20485;-72
2022/07/09 02:12:29;;;;;;;5.22;2.55;;;;;;;16.64;76.13;101812.72;5041914;28;20056;-71
2022/07/09 02:14:55;;;;;;;8.07;2.95;;;;;;;16.57;76.29;101801.03;5042039;28;20064;-72
2022/07/09 02:17:20;;;;;;;4.72;2.60;;;;;;;16.54;75.82;101802.47;5058419;28;20028;-72
2022/07/09 02:19:46;;;;;;;3.75;2.60;;;;;;;16.56;75.52;101805.81;5058117;28;20028;-72
2022/07/09 02:22:11;;;;;;;3.50;2.45;;;;;;;16.52;75.63;101801.94;5041413;28;20028;-72
2022/07/09 02:24:37;;;;;;;4.55;2.65;;;;;;;16.47;76.41;101805.66;5057604;28;20036;-72
2022/07/09 02:27:02;;;;;;;4.28;2.97;;;;;;;16.46;76.86;101814.34;5074575;28;20060;-72
2022/07/09 02:29:28;;;;;;;5.15;2.60;;;;;;;16.47;75.98;101807.63;5074270;28;20032;-72
2022/07/09 02:31:55;;;;;;;4.55;3.25;;;;;;;16.40;76.57;101804.34;5075150;28;20017;-72
2022/07/09 02:34:21;;;;;;;3.90;2.75;;;;;;;16.39;75.76;101805.50;5039639;28;20037;-72
2022/07/09 02:36:46;;;;;;;4.00;3.08;;;;;;;16.34;77.61;101799.97;5057752;28;20063;-72
2022/07/09 02:39:12;;;;;;;4.22;2.53;;;;;;;16.35;75.89;101799.63;5075679;28;20028;-72
2022/07/09 02:41:37;;;;;;;3.90;2.50;;;;;;;16.34;75.57;101803.59;5024748;28;20122;-72
2022/07/09 02:44:03;;;;;;;6.43;3.00;;;;;;;16.30;75.95;101800.56;5074865;28;20037;-71
2022/07/09 02:46:29;;;;;;;3.88;2.40;;;;;;;16.27;75.83;101801.16;5041420;28;20683;-72
2022/07/09 02:48:54;;;;;;;3.95;2.50;;;;;;;16.26;75.68;101796.69;5024380;28;20037;-72
2022/07/09 02:51:19;;;;;;;4.25;2.42;;;;;;;16.22;75.63;101794.81;5024820;28;20021;-72
2022/07/09 02:53:45;;;;;;;4.95;2.88;;;;;;;16.23;75.68;101797.28;5037908;28;20098;-72
2022/07/09 02:56:11;;;;;;;3.03;2.58;;;;;;;16.17;76.24;101795.69;5089071;28;20032;-72
2022/07/09 02:58:36;;;;;;;4.72;2.78;;;;;;;16.15;76.33;101797.94;5074383;28;20033;-72
2022/07/09 03:01:05;;;;;;;3.70;2.60;;;;;;;16.17;76.04;101792.88;5058073;28;20028;-72
2022/07/09 03:03:31;;;;;;;4.35;2.85;;;;;;;16.13;75.98;101794.63;5041133;28;20025;-72
2022/07/09 03:05:56;;;;;;;4.63;2.92;;;;;;;16.08;76.30;101795.53;5074086;28;20025;-72
2022/07/09 03:08:22;;;;;;;6.07;3.10;;;;;;;16.07;77.33;101801.41;5039167;28;20489;-72
2022/07/09 03:10:49;;;;;;;4.75;3.15;;;;;;;16.02;76.85;101796.75;5075465;28;20033;-72
2022/07/09 03:13:14;;;;;;;3.53;3.00;;;;;;;16.02;76.70;101793.09;5075256;28;20107;-72
2022/07/09 03:15:40;;;;;;;6.38;2.88;;;;;;;16.00;76.33;101800.97;5024697;28;20085;-72
2022/07/09 03:18:08;;;;;;;3.95;3.15;;;;;;;16.01;77.01;101789.44;5024589;28;20361;-72
2022/07/09 03:20:35;;;;;;;6.18;3.30;;;;;;;16.02;76.69;101784.69;5070770;28;20061;-72
2022/07/09 03:23:01;;;;;;;4.45;2.83;;;;;;;16.01;76.70;101785.81;5070564;28;20029;-72
2022/07/09 03:25:27;;;;;;;3.55;2.72;;;;;;;16.02;76.82;101796.75;5041154;28;20471;-72
2022/07/09 03:27:52;;;;;;;5.22;3.00;;;;;;;15.99;76.24;101793.69;5041238;28;20029;-72
2022/07/09 03:30:18;;;;;;;3.40;3.00;;;;;;;15.99;76.06;101793.69;5057662;28;20493;-72
2022/07/09 03:32:44;;;;;;;4.60;2.78;;;;;;;15.96;75.81;101791.47;5070869;28;20032;-72
2022/07/09 03:35:10;;;;;;;3.67;2.90;;;;;;;15.96;75.35;101792.31;5057296;28;20027;-72
2022/07/09 03:37:35;;;;;;;4.13;3.00;;;;;;;15.95;75.30;101795.44;5043306;28;20025;-72
2022/07/09 03:40:02;;;;;;;4.18;3.17;;;;;;;15.89;75.00;101789.06;5077915;28;20028;-72
2022/07/09 03:42:27;;;;;;;5.90;3.03;;;;;;;15.88;75.31;101794.94;5060997;28;20024;-72
2022/07/09 03:44:53;;;;;;;4.13;2.90;;;;;;;15.82;74.81;101795.03;5044259;28;20089;-72
2022/07/09 03:47:18;;;;;;;3.70;2.95;;;;;;;15.80;74.90;101797.28;5061315;28;20381;-72
2022/07/09 03:49:44;;;;;;;5.78;3.10;;;;;;;15.79;75.06;101795.59;5052838;28;20024;-72
2022/07/09 03:52:09;;;;;;;5.60;3.13;;;;;;;15.78;74.48;101801.50;5077590;28;20032;-72
2022/07/09 03:54:35;;;;;;;4.47;2.50;;;;;;;15.71;74.93;101804.69;5077581;28;20515;-72
2022/07/09 03:57:00;;;;;;;3.63;2.80;;;;;;;15.72;74.89;101802.72;5040903;28;20040;-72
2022/07/09 03:59:26;;;;;;;3.60;3.10;;;;;;;15.69;74.99;101800.50;5054709;28;20033;-72
2022/07/09 04:01:51;;;;;;;5.13;2.85;;;;;;;15.66;74.78;101796.31;5060806;28;20021;-72
2022/07/09 04:04:17;;;;;;;4.68;2.90;;;;;;;15.57;75.01;101796.13;5060784;28;20039;-72
2022/07/09 04:06:42;;;;;;;3.40;2.70;;;;;;;15.58;74.63;101794.16;5060545;28;20060;-72
2022/07/09 04:09:07;;;;;;;3.22;2.70;;;;;;;15.53;75.24;101791.41;5061006;28;20369;-72
2022/07/09 04:11:33;;;;;;;4.88;2.60;;;;;;;15.52;75.21;101786.94;5060931;28;20021;-72
2022/07/09 04:13:59;;;;;;;3.50;2.80;;;;;;;15.50;74.43;101783.59;5057298;28;20556;-72
2022/07/09 04:16:25;;;;;;;3.42;2.60;;;;;;;15.46;75.33;101782.50;5075529;28;20020;-72
2022/07/09 04:18:50;;;;;;;3.53;2.80;;;;;;;15.42;75.11;101782.28;5024275;28;20029;-72
2022/07/09 04:21:16;;;;;;;3.30;2.63;;;;;;;15.38;75.00;101790.44;5059046;28;20024;-72
2022/07/09 04:23:42;;;;;;;5.30;2.70;;;;;;;15.38;74.67;101792.41;5044290;28;20043;-72
2022/07/09 04:26:08;;;;;;;3.75;3.08;;;;;;;15.35;75.39;101788.22;5040704;28;20064;-72
2022/07/09 04:28:36;;;;;;;5.10;2.40;;;;;;;15.34;75.39;101783.75;5077029;28;20055;-72
2022/07/09 04:31:01;;;;;;;3.67;2.50;;;;;;;15.32;75.98;101782.38;5026253;28;20032;-72
2022/07/09 04:33:27;;;;;;;3.53;2.60;;;;;;;15.35;76.69;101781.78;5026191;28;20021;-72
2022/07/09 04:35:52;;;;;;;3.17;2.42;;;;;;;15.35;77.03;101785.44;5057131;28;20074;-72
2022/07/09 04:38:18;;;;;;;3.47;3.00;;;;;;;15.38;78.22;101775.59;5075581;28;20028;-72
2022/07/09 04:40:43;;;;;;;3.78;3.00;;;;;;;15.41;79.85;101775.84;5059956;28;20043;-72
2022/07/09 04:43:09;;;;;;;3.78;2.80;;;;;;;15.44;81.25;101777.22;5060153;28;20051;-72
2022/07/09 04:45:34;;;;;;;3.00;2.70;;;;;;;15.47;82.60;101775.78;5043605;28;20040;-72
2022/07/09 04:48:00;;;;;;;3.53;2.83;;;;;;;15.54;84.34;101779.06;5043555;28;20040;-72
2022/07/09 04:50:25;;;;;;;3.00;2.70;;;;;;;15.60;83.56;101778.72;5024886;28;20493;-72
2022/07/09 04:52:51;;;;;;;4.38;2.75;;;;;;;15.70;81.58;101783.38;5059752;28;20033;-72
2022/07/09 04:55:17;;;;;;;4.18;2.67;;;;;;;15.81;81.39;101789.72;5043221;28;20056;-72
2022/07/09 04:57:43;;;;;;;3.55;2.92;;;;;;;15.94;81.82;101785.38;5042656;28;20395;-72
2022/07/09 05:00:10;;;;;;;5.18;3.03;;;;;;;16.05;81.07;101784.94;5039864;28;20686;-72
2022/07/09 05:02:35;;;;;;;3.17;2.47;;;;;;;16.17;78.97;101784.47;5043717;28;20035;-72
2022/07/09 05:05:03;;;;;;;6.22;2.42;;;;;;;16.33;76.51;101785.13;5056341;28;20025;-72
2022/07/09 05:07:29;;;;;;;3.50;2.40;;;;;;;16.47;75.81;101782.41;5068965;28;20102;-72
2022/07/09 05:09:55;;;;;;;3.58;2.30;;;;;;;16.62;74.99;101787.75;5051004;28;20060;-72
2022/07/09 05:12:20;;;;;;;3.22;2.25;;;;;;;16.78;74.37;101791.19;5059726;28;20031;-72
2022/07/09 05:14:46;;;;;;;3.83;2.40;;;;;;;16.93;73.59;101793.72;5042951;28;20037;-72
2022/07/09 05:17:12;;;;;;;2.80;2.50;;;;;;;17.10;72.99;101784.75;5059855;28;20032;-72
2022/07/09 05:19:37;;;;;;;3.22;2.30;;;;;;;17.27;72.80;101786.16;5074199;28;20507;-72
2022/07/09 05:22:03;;;;;;;3.63;2.30;;;;;;;17.43;72.26;101779.09;5053060;28;20493;-72
2022/07/09 05:24:28;;;;;;;3.53;2.22;;;;;;;17.60;71.76;101773.72;5075770;28;20111;-72
2022/07/09 05:26:54;;;;;;;3.17;2.58;;;;;;;17.77;71.35;101778.72;5039470;28;20036;-72
2022/07/09 05:29:22;;;;;;;4.05;2.35;;;;;;;17.96;71.12;101780.63;5058368;28;20094;-72
2022/07/09 05:31:48;;;;;;;4.28;1.90;;;;;;;18.13;70.25;101774.34;5059492;28;20084;-72
2022/07/09 05:34:14;;;;;;;2.45;2.22;;;;;;;18.33;69.97;101781.50;5076001;28;20029;-72
2022/07/09 05:36:39;;;;;;;2.58;2.17;;;;;;;18.50;69.48;101779.69;5042388;28;20515;-72
2022/07/09 05:39:07;;;;;;;3.25;2.00;;;;;;;18.68;69.52;101779.84;5058676;28;20067;-72
2022/07/09 05:41:32;;;;;;;4.00;2.22;;;;;;;18.86;69.60;101778.88;5042842;28;20111;-72
2022/07/09 05:43:58;;;;;;;5.75;3.08;;;;;;;19.02;71.67;101786.91;5075554;28;20055;-72
2022/07/09 05:46:23;;;;;;;7.13;3.13;;;;;;;19.15;73.00;101786.00;5076661;28;20031;-72
2022/07/09 05:48:49;;;;;;;5.20;3.05;;;;;;;19.28;72.61;101793.56;5042020;28;20029;-72
2022/07/09 05:51:14;;;;;;;5.40;2.47;;;;;;;19.46;69.30;101788.00;5025447;28;20028;-72
2022/07/09 05:53:40;;;;;;;2.75;2.45;;;;;;;19.63;67.89;101786.09;5025775;28;20092;-72
2022/07/09 05:56:06;;;;;;;3.40;2.30;;;;;;;19.82;68.04;101785.88;5042299;28;20082;-72
2022/07/09 05:58:31;;;;;;;2.80;2.20;;;;;;;20.00;67.72;101783.09;5058201;28;20111;-72
2022/07/09 06:00:57;;;;;;;4.78;3.03;;;;;;;20.16;69.04;101789.13;5057965;28;20025;-72
2022/07/09 06:03:22;;;;;;;3.88;2.75;;;;;;;20.29;68.70;101783.34;5038916;28;20020;-72
2022/07/09 06:05:48;;;;;;;2.65;1.88;;;;;;;20.43;67.02;101786.03;5087726;28;20090;-72
2022/07/09 06:08:13;;;;;;;4.13;2.50;;;;;;;20.58;66.85;101798.84;5058296;28;20511;-72
2022/07/09 06:10:39;;;;;;;4.90;3.20;;;;;;;20.70;68.11;101803.84;5058692;28;20029;-72
2022/07/09 06:13:04;;;;;;;5.05;2.70;;;;;;;20.81;67.83;101795.84;5076057;28;20085;-72
2022/07/09 06:15:30;;;;;;;4.97;2.88;;;;;;;20.93;66.34;101796.03;5076386;28;20048;-72
2022/07/09 06:17:55;;;;;;;5.05;3.25;;;;;;;21.05;67.78;101798.19;5076639;28;20025;-72
2022/07/09 06:20:20;;;;;;;5.20;2.95;;;;;;;21.15;68.55;101800.66;5073188;28;20035;-72
2022/07/09 06:22:46;;;;;;;5.75;2.95;;;;;;;21.26;65.80;101801.16;5058063;28;20041;-72
2022/07/09 06:25:12;;;;;;;3.63;2.97;;;;;;;21.36;67.42;101797.94;5041691;28;20048;-72
2022/07/09 06:27:37;;;;;;;5.60;2.50;;;;;;;21.43;68.08;101809.59;5074656;28;20082;-72
2022/07/09 06:30:03;;;;;;;5.97;2.85;;;;;;;21.56;67.69;101807.72;5074853;28;20060;-72
2022/07/09 06:32:28;;;;;;;7.18;2.83;;;;;;;21.67;67.32;101796.88;5040398;28;20036;-72
2022/07/09 06:34:54;;;;;;;5.47;2.75;;;;;;;21.74;67.11;101798.03;5076054;28;20460;-72
2022/07/09 06:37:20;;;;;;;3.88;2.97;;;;;;;21.86;66.85;101794.47;5041121;28;20085;-72
2022/07/09 06:39:45;;;;;;;4.05;2.72;;;;;;;22.03;66.25;101788.72;5041821;28;20036;-72
2022/07/09 06:42:16;;;;;;;4.97;2.60;;;;;;;22.14;66.12;101794.00;5055345;28;20086;-72
2022/07/09 06:44:41;;;;;;;4.85;2.53;;;;;;;22.23;66.09;101787.16;5035192;28;20411;-72
2022/07/09 06:47:07;;;;;;;3.92;2.40;;;;;;;22.40;64.95;101791.00;5058076;28;20099;-72
2022/07/09 06:49:33;;;;;;;3.83;2.30;;;;;;;22.52;63.84;101789.09;5056282;28;20025;-72
2022/07/09 06:51:59;;;;;;;7.38;2.50;;;;;;;22.65;63.72;101790.00;5057718;28;20479;-72
2022/07/09 06:54:24;;;;;;;5.75;2.58;;;;;;;22.77;63.89;101788.41;5057806;28;20575;-72
2022/07/09 06:56:50;;;;;;;4.22;2.55;;;;;;;22.85;63.68;101793.16;5057160;28;20029;-72
2022/07/09 06:59:18;;;;;;;6.07;2.25;;;;;;;23.01;63.38;101788.53;5057749;28;20032;-72
2022/07/09 07:01:43;;;;;;;5.47;2.10;;;;;;;23.19;61.22;101790.03;5074569;28;20028;-72
2022/07/09 07:04:11;;;;;;;3.28;1.90;;;;;;;23.24;61.18;101791.00;5074405;28;20029;-72
2022/07/09 07:06:37;;;;;;;3.45;2.10;;;;;;;23.45;60.95;101790.91;5057280;28;20392;-72
2022/07/09 07:09:03;;;;;;;2.78;2.00;;;;;;;23.55;60.90;101790.47;5057929;28;20032;-72
2022/07/09 07:11:28;;;;;;;4.55;2.58;;;;;;;23.62;60.55;101779.34;5057316;28;20074;-72
2022/07/09 07:13:53;;;;;;;3.42;2.10;;;;;;;23.76;60.84;101784.72;5057302;28;20086;-72
2022/07/09 07:16:19;;;;;;;2.83;1.90;;;;;;;23.88;59.66;101787.59;5061513;28;20107;-72
2022/07/09 07:18:45;;;;;;;5.45;2.10;;;;;;;24.02;59.72;101782.38;5061789;28;20039;-72
2022/07/09 07:21:10;;;;;;;3.95;2.00;;;;;;;24.19;58.05;101783.31;5056004;28;20033;-72
2022/07/09 07:23:36;;;;;;;3.13;2.00;;;;;;;24.30;58.10;101776.78;5074194;28;20025;-72
2022/07/09 07:26:01;;;;;;;3.00;1.50;;;;;;;24.50;56.83;101774.16;5078274;28;20036;-72
2022/07/09 07:28:27;;;;;;;3.30;1.98;;;;;;;24.56;57.14;101772.72;5061751;28;20032;-72
2022/07/09 07:30:54;;;;;;;3.00;1.50;;;;;;;24.73;56.36;101778.09;5044616;28;20066;-72
2022/07/09 07:33:19;;;;;;;2.45;1.52;;;;;;;24.87;55.30;101768.34;5059773;28;20036;-72
2022/07/09 07:35:45;;;;;;;3.03;1.65;;;;;;;25.01;56.16;101768.75;5045076;28;20032;-72
2022/07/09 07:38:10;;;;;;;6.18;2.05;;;;;;;25.14;55.30;101775.22;5044447;28;20032;-72
2022/07/09 07:40:36;;;;;;;3.80;1.80;;;;;;;25.25;55.89;101772.72;5077648;28;20040;-72
2022/07/09 07:43:03;;;;;;;7.72;1.85;;;;;;;25.34;54.63;101774.19;5079104;28;20059;-72
2022/07/09 07:45:28;;;;;;;5.57;2.15;;;;;;;25.53;54.65;101776.31;5057630;28;20025;-72
2022/07/09 07:47:54;;;;;;;4.97;1.63;;;;;;;25.71;53.62;101776.75;5074231;28;20028;-72
2022/07/09 07:50:20;;;;;;;6.13;1.80;;;;;;;25.87;55.10;101764.59;5075151;28;20032;-72
2022/07/09 07:52:46;;;;;;;3.22;1.67;;;;;;;26.03;53.22;101771.09;5060725;28;20024;-72
2022/07/09 07:55:11;;;;;;;4.53;1.60;;;;;;;26.19;51.95;101776.78;5040975;28;20060;-71
2022/07/09 07:57:37;;;;;;;3.05;1.40;;;;;;;26.31;52.02;101765.25;5088579;28;20075;-72
2022/07/09 08:00:04;;;;;;;3.13;1.70;;;;;;;26.36;51.97;101770.66;5044443;28;20039;-71
2022/07/09 08:02:30;;;;;;;2.85;2.03;;;;;;;26.50;52.19;101764.44;5044682;28;20055;-71
2022/07/09 08:04:55;;;;;;;4.13;1.60;;;;;;;26.62;51.79;101770.03;5041207;28;20033;-71
2022/07/09 08:07:21;;;;;;;2.17;1.42;;;;;;;26.81;50.58;101771.25;5058234;28;20154;-71
2022/07/09 08:09:46;;;;;;;6.18;1.48;;;;;;;26.88;50.18;101762.81;5040755;28;20021;-73
2022/07/09 08:12:12;;;;;;;5.50;1.77;;;;;;;26.89;50.76;101767.34;5055474;28;20020;-72
2022/07/09 08:14:37;;;;;;;6.07;2.03;;;;;;;27.06;49.56;101771.75;5027656;28;20666;-68
2022/07/09 08:17:03;;;;;;;5.13;1.90;;;;;;;27.18;49.44;101780.97;5077424;28;20031;-73
2022/07/09 08:19:28;;;;;;;32.17;4.32;;;;;;;27.31;49.39;101775.94;5075472;28;20035;-74
2022/07/09 08:21:54;;;;;;;12.98;2.72;;;;;;;27.38;49.52;101769.53;5053481;28;20033;-69
2022/07/09 08:24:19;;;;;;;5.75;2.15;;;;;;;27.56;49.94;101762.13;5075404;28;20039;-69
2022/07/09 08:26:45;;;;;;;5.63;1.90;;;;;;;27.76;49.73;101760.03;5077108;28;20070;-69
2022/07/09 08:29:10;;;;;;;7.47;1.95;;;;;;;27.84;48.42;101764.69;5060500;28;20033;-69
2022/07/09 08:31:36;;;;;;;4.72;1.65;;;;;;;27.98;48.10;101763.25;5060482;28;20040;-69
2022/07/09 08:34:01;;;;;;;3.30;1.35;;;;;;;28.12;47.63;101760.63;5057445;28;20036;-69
2022/07/09 08:36:27;;;;;;;4.72;1.77;;;;;;;28.37;47.88;101760.16;5043040;28;20052;-69
2022/07/09 08:38:52;;;;;;;4.57;1.60;;;;;;;28.51;47.35;101754.69;5043816;28;20037;-69
2022/07/09 08:41:19;;;;;;;3.92;1.80;;;;;;;28.58;47.41;101749.03;5043135;28;20036;-69
2022/07/09 08:43:48;;;;;;;5.03;1.73;;;;;;;28.53;46.31;101757.97;5040467;28;20040;-69
2022/07/09 08:46:13;;;;;;;4.18;1.70;;;;;;;28.73;46.66;101745.16;5075783;28;20032;-69
2022/07/09 08:48:39;;;;;;;4.47;1.60;;;;;;;28.85;46.39;101740.41;5024018;28;20024;-69
2022/07/09 08:51:04;;;;;;;4.30;1.67;;;;;;;28.90;45.72;101745.78;5035360;28;20039;-69
2022/07/09 08:53:30;;;;;;;3.95;1.58;;;;;;;29.08;45.14;101738.22;5076442;28;20074;-69
2022/07/09 08:55:56;;;;;;;2.70;1.33;;;;;;;29.25;45.53;101738.81;5072971;28;20107;-69
2022/07/09 08:58:22;;;;;;;3.25;1.40;;;;;;;29.33;45.18;101738.50;5043051;28;20032;-72
2022/07/09 09:00:48;;;;;;;7.43;1.77;;;;;;;29.39;44.55;101747.53;5068401;28;20036;-69
2022/07/09 09:03:13;;;;;;;3.00;1.50;;;;;;;29.44;44.74;101737.78;5041467;28;20028;-69
2022/07/09 09:05:39;;;;;;;4.95;1.60;;;;;;;29.39;43.57;101741.81;5059614;28;20154;-70
2022/07/09 09:08:22;;;;;;;3.00;1.48;;;;;;;29.54;43.63;101735.03;5059643;28;20060;-70
2022/07/09 09:10:47;;;;;;;4.63;1.30;;;;;;;29.70;43.89;101734.78;5056753;28;20048;-70
2022/07/09 09:13:15;;;;;;;3.28;1.35;;;;;;;29.74;43.00;101734.81;5041383;28;20032;-70
2022/07/09 09:15:41;;;;;;;5.43;1.55;;;;;;;29.90;43.66;101741.06;5057539;28;20086;-70
2022/07/09 09:18:06;;;;;;;2.72;1.70;;;;;;;30.06;44.29;101732.16;5075890;28;20029;-70
2022/07/09 09:20:32;;;;;;;4.45;1.30;;;;;;;30.22;43.45;101726.97;5075201;28;20024;-68
2022/07/09 09:23:02;;;;;;;5.72;1.80;;;;;;;30.05;42.53;101728.47;5025550;28;20039;-69
2022/07/09 09:25:28;;;;;;;7.55;1.70;;;;;;;30.06;41.90;101735.88;5043100;28;20029;-69
2022/07/09 09:27:55;;;;;;;3.45;1.52;;;;;;;30.22;42.07;101731.88;5092994;28;20072;-69
2022/07/09 09:30:20;;;;;;;2.00;1.63;;;;;;;30.18;41.29;101734.72;5092847;28;20033;-69
2022/07/09 09:33:04;;;;;;;2.45;1.60;;;;;;;30.34;40.63;101728.69;5059174;28;20063;-69
2022/07/09 09:35:32;;;;;;;3.80;1.60;;;;;;;30.38;41.14;101726.66;5024907;28;20082;-68
2022/07/09 09:37:58;;;;;;;4.35;1.20;;;;;;;30.46;41.54;101728.34;5056326;28;20036;-69
2022/07/09 09:40:24;;;;;;;6.00;2.08;;;;;;;30.44;40.64;101733.66;5055129;28;20033;-69
2022/07/09 09:42:49;;;;;;;3.20;2.00;;;;;;;30.49;40.74;101733.25;5058775;28;20028;-69
2022/07/09 09:45:15;;;;;;;3.33;1.80;;;;;;;30.50;40.06;101726.28;5042036;28;20032;-69
2022/07/09 09:47:51;;;;;;;2.20;1.88;;;;;;;30.48;39.70;101719.34;5038895;28;20436;-68
2022/07/09 09:50:18;;;;;;;3.90;1.92;;;;;;;30.55;39.98;101721.41;5074726;28;20030;-69
2022/07/09 09:52:45;;;;;;;3.08;2.20;;;;;;;30.55;39.76;101730.84;5058636;28;20090;-69
2022/07/09 09:55:12;;;;;;;3.40;1.90;;;;;;;30.49;39.74;101724.66;5058480;28;20060;-69
2022/07/09 09:57:38;;;;;;;5.15;2.10;;;;;;;30.64;40.27;101725.53;5042481;28;20021;-69
2022/07/09 10:00:04;;;;;;;4.38;1.98;;;;;;;30.62;39.09;101722.28;5041985;28;20025;-69
2022/07/09 10:02:29;;;;;;;5.47;2.10;;;;;;;30.63;38.96;101725.97;5075718;28;20115;-69
2022/07/09 10:04:55;;;;;;;5.40;2.17;;;;;;;30.67;39.55;101729.66;5039785;28;20029;-69
2022/07/09 10:07:20;;;;;;;3.10;2.05;;;;;;;30.72;39.83;101726.41;5041938;28;20046;-69
2022/07/09 10:09:57;;;;;;;3.67;1.80;;;;;;;30.80;39.17;101725.22;5074674;28;20039;-69
2022/07/09 10:12:29;;;;;;;2.72;1.88;;;;;;;30.89;39.04;101719.09;5092019;28;20032;-69
2022/07/09 10:14:55;;;;;;;3.78;1.70;;;;;;;30.93;38.91;101726.50;5058296;28;20477;-68
2022/07/09 10:17:20;;;;;;;2.13;1.90;;;;;;;31.00;38.89;101719.13;5042076;28;20102;-68
2022/07/09 10:20:03;;;;;;;3.58;1.63;;;;;;;31.05;38.09;101722.44;5072134;28;20037;-68
2022/07/09 10:22:40;;;;;;;3.05;1.73;;;;;;;31.10;38.00;101730.63;5058054;28;20059;-68
2022/07/09 10:25:06;;;;;;;4.40;2.10;;;;;;;31.15;38.38;101724.50;5058610;28;20032;-69
2022/07/09 10:27:45;;;;;;;4.40;1.70;;;;;;;31.27;38.43;101719.59;5057358;28;20024;-68
2022/07/09 10:30:32;;;;;;;4.88;1.90;;;;;;;31.39;38.11;101725.78;5058591;28;20111;-68
2022/07/09 10:33:07;;;;;;;3.47;1.70;;;;;;;31.43;38.28;101731.53;5065792;28;20024;-68
2022/07/09 10:35:42;;;;;;;4.40;1.90;;;;;;;31.44;37.71;101729.50;5074940;28;20107;-68
2022/07/09 10:38:08;;;;;;;3.97;1.60;;;;;;;31.52;37.48;101729.06;5057862;28;20024;-68
2022/07/09 10:40:57;;;;;;;2.08;1.52;;;;;;;31.61;37.61;101714.31;5041482;28;20029;-69
2022/07/09 10:43:47;;;;;;;2.95;1.80;;;;;;;31.54;36.42;101725.81;5064298;28;20052;-70
2022/07/09 10:46:13;;;;;;;3.95;2.28;;;;;;;31.59;36.24;101722.50;5104830;28;20557;-69
2022/07/09 10:48:39;;;;;;;8.48;3.85;;;;;;;31.67;36.82;101717.59;5037723;28;20048;-69
2022/07/09 10:51:04;;;;;;;4.47;2.03;;;;;;;31.74;36.55;101717.59;5075379;28;20024;-68
2022/07/09 10:53:30;;;;;;;4.53;1.90;;;;;;;31.78;36.13;101710.59;5041392;28;20044;-69
2022/07/09 10:55:55;;;;;;;2.80;1.73;;;;;;;31.93;36.80;101710.59;5055909;28;20083;-69
2022/07/09 10:58:21;;;;;;;4.70;2.05;;;;;;;31.86;36.31;101722.09;5038810;28;20036;-68
2022/07/09 11:00:56;;;;;;;3.10;1.88;;;;;;;31.85;36.33;101718.41;5041457;28;20384;-69
2022/07/09 11:03:26;;;;;;;2.97;1.83;;;;;;;31.79;36.37;101717.19;5074397;28;20021;-68
2022/07/09 11:05:51;;;;;;;3.70;2.00;;;;;;;31.78;36.18;101704.84;5057525;28;20028;-68
2022/07/09 11:08:17;;;;;;;2.17;1.60;;;;;;;31.82;35.68;101702.81;5041367;28;20029;-68
2022/07/09 11:10:43;;;;;;;3.35;2.05;;;;;;;31.94;36.26;101703.66;5058096;28;20021;-68
2022/07/09 11:13:09;;;;;;;4.13;1.90;;;;;;;32.08;36.18;101705.66;5024527;28;20028;-68
2022/07/09 11:15:35;;;;;;;4.72;1.92;;;;;;;32.19;36.15;101692.91;5050645;28;20083;-68
2022/07/09 11:18:13;;;;;;;5.80;1.63;;;;;;;32.16;35.20;101696.59;5074125;28;20695;-68
2022/07/09 11:20:45;;;;;;;2.40;1.20;;;;;;;32.07;34.43;101701.97;5057978;28;20029;-68